sensor_id;sensor_type;location;lat;lon;timestamp;P1;durP1;ratioP1;P2;durP2;ratioP2
20203;SDS011;10261;49.010;12.034;2022-10-31T00:00:39;5.82;;;5.22;;
20203;SDS011;10261;49.010;12.034;2022-10-31T00:01:41;8.27;;;6.13;;
20203;SDS011;10261;49.010;12.034;2022-10-31T00:02:44;7.97;;;5.22;;
20203;SDS011;10261;49.010;12.034;2022-10-31T00:03:46;5.95;;;4.82;;
20203;SDS011;10261;49.010;12.034;2022-10-31T00:04:49;10.70;;;5.60;;
20203;SDS011;10261;49.010;12.034;2022-10-31T00:05:51;11.90;;;5.90;;
20203;SDS011;10261;49.010;12.034;2022-10-31T00:06:55;9.30;;;5.65;;
20203;SDS011;10261;49.010;12.034;2022-10-31T00:07:57;8.85;;;5.35;;
20203;SDS011;10261;49.010;12.034;2022-10-31T00:09:00;9.32;;;6.68;;
20203;SDS011;10261;49.010;12.034;2022-10-31T00:10:05;6.00;;;4.80;;
20203;SDS011;10261;49.010;12.034;2022-10-31T00:11:09;8.73;;;4.88;;
20203;SDS011;10261;49.010;12.034;2022-10-31T00:12:11;7.60;;;5.50;;
20203;SDS011;10261;49.010;12.034;2022-10-31T00:13:14;7.38;;;4.78;;
20203;SDS011;10261;49.010;12.034;2022-10-31T00:14:16;6.20;;;5.20;;
20203;SDS011;10261;49.010;12.034;2022-10-31T00:15:21;8.63;;;5.35;;
20203;SDS011;10261;49.010;12.034;2022-10-31T00:16:23;7.75;;;5.15;;
20203;SDS011;10261;49.010;12.034;2022-10-31T00:17:27;12.48;;;5.63;;
20203;SDS011;10261;49.010;12.034;2022-10-31T00:18:29;15.98;;;6.60;;
20203;SDS011;10261;49.010;12.034;2022-10-31T00:19:32;10.40;;;5.88;;
20203;SDS011;10261;49.010;12.034;2022-10-31T00:20:34;13.13;;;6.65;;
20203;SDS011;10261;49.010;12.034;2022-10-31T00:21:36;16.67;;;6.30;;
20203;SDS011;10261;49.010;12.034;2022-10-31T00:22:38;9.65;;;5.85;;
20203;SDS011;10261;49.010;12.034;2022-10-31T00:23:41;11.23;;;6.07;;
20203;SDS011;10261;49.010;12.034;2022-10-31T00:24:44;13.07;;;6.43;;
20203;SDS011;10261;49.010;12.034;2022-10-31T00:25:47;11.95;;;7.20;;
20203;SDS011;10261;49.010;12.034;2022-10-31T00:26:49;8.50;;;5.82;;
20203;SDS011;10261;49.010;12.034;2022-10-31T00:27:52;14.23;;;6.13;;
20203;SDS011;10261;49.010;12.034;2022-10-31T00:28:54;9.32;;;6.00;;
20203;SDS011;10261;49.010;12.034;2022-10-31T00:29:57;12.13;;;6.20;;
20203;SDS011;10261;49.010;12.034;2022-10-31T00:31:00;8.23;;;6.15;;
20203;SDS011;10261;49.010;12.034;2022-10-31T00:32:04;8.80;;;5.85;;
20203;SDS011;10261;49.010;12.034;2022-10-31T00:33:07;9.57;;;6.20;;
20203;SDS011;10261;49.010;12.034;2022-10-31T00:34:09;12.70;;;5.90;;
20203;SDS011;10261;49.010;12.034;2022-10-31T00:35:12;7.47;;;5.25;;
20203;SDS011;10261;49.010;12.034;2022-10-31T00:36:15;8.77;;;5.25;;
20203;SDS011;10261;49.010;12.034;2022-10-31T00:37:19;7.10;;;5.00;;
20203;SDS011;10261;49.010;12.034;2022-10-31T00:38:21;8.30;;;5.35;;
20203;SDS011;10261;49.010;12.034;2022-10-31T00:39:24;10.05;;;6.10;;
20203;SDS011;10261;49.010;12.034;2022-10-31T00:40:26;8.50;;;6.35;;
20203;SDS011;10261;49.010;12.034;2022-10-31T00:41:29;12.65;;;5.90;;
20203;SDS011;10261;49.010;12.034;2022-10-31T00:42:31;9.52;;;5.30;;
20203;SDS011;10261;49.010;12.034;2022-10-31T00:43:34;10.27;;;7.10;;
20203;SDS011;10261;49.010;12.034;2022-10-31T00:44:36;7.07;;;4.82;;
20203;SDS011;10261;49.010;12.034;2022-10-31T00:45:39;5.38;;;4.85;;
20203;SDS011;10261;49.010;12.034;2022-10-31T00:46:43;7.38;;;5.32;;
20203;SDS011;10261;49.010;12.034;2022-10-31T00:47:46;6.80;;;5.13;;
20203;SDS011;10261;49.010;12.034;2022-10-31T00:48:48;10.73;;;5.28;;
20203;SDS011;10261;49.010;12.034;2022-10-31T00:49:51;10.80;;;5.00;;
20203;SDS011;10261;49.010;12.034;2022-10-31T00:50:53;11.48;;;5.38;;
20203;SDS011;10261;49.010;12.034;2022-10-31T00:51:56;9.82;;;4.93;;
20203;SDS011;10261;49.010;12.034;2022-10-31T00:52:58;6.75;;;4.70;;
20203;SDS011;10261;49.010;12.034;2022-10-31T00:54:01;8.55;;;5.43;;
20203;SDS011;10261;49.010;12.034;2022-10-31T00:55:03;8.80;;;4.95;;
20203;SDS011;10261;49.010;12.034;2022-10-31T00:56:06;9.65;;;5.32;;
20203;SDS011;10261;49.010;12.034;2022-10-31T00:57:08;6.35;;;5.18;;
20203;SDS011;10261;49.010;12.034;2022-10-31T00:58:11;5.45;;;4.65;;
20203;SDS011;10261;49.010;12.034;2022-10-31T00:59:18;8.55;;;4.80;;
20203;SDS011;10261;49.010;12.034;2022-10-31T01:00:21;5.20;;;4.70;;
20203;SDS011;10261;49.010;12.034;2022-10-31T01:01:23;8.02;;;5.53;;
20203;SDS011;10261;49.010;12.034;2022-10-31T01:02:28;8.85;;;5.30;;
20203;SDS011;10261;49.010;12.034;2022-10-31T01:03:30;8.18;;;5.30;;
20203;SDS011;10261;49.010;12.034;2022-10-31T01:04:35;9.18;;;4.80;;
20203;SDS011;10261;49.010;12.034;2022-10-31T01:05:36;7.63;;;5.30;;
20203;SDS011;10261;49.010;12.034;2022-10-31T01:06:39;10.43;;;5.30;;
20203;SDS011;10261;49.010;12.034;2022-10-31T01:07:42;7.20;;;4.10;;
20203;SDS011;10261;49.010;12.034;2022-10-31T01:08:45;8.77;;;4.80;;
20203;SDS011;10261;49.010;12.034;2022-10-31T01:09:50;9.15;;;5.25;;
20203;SDS011;10261;49.010;12.034;2022-10-31T01:10:59;6.15;;;4.75;;
20203;SDS011;10261;49.010;12.034;2022-10-31T01:12:03;12.00;;;5.63;;
20203;SDS011;10261;49.010;12.034;2022-10-31T01:13:06;6.07;;;5.47;;
20203;SDS011;10261;49.010;12.034;2022-10-31T01:14:08;8.68;;;5.50;;
20203;SDS011;10261;49.010;12.034;2022-10-31T01:15:12;11.13;;;5.30;;
20203;SDS011;10261;49.010;12.034;2022-10-31T01:16:17;7.70;;;5.32;;
20203;SDS011;10261;49.010;12.034;2022-10-31T01:17:21;5.78;;;5.00;;
20203;SDS011;10261;49.010;12.034;2022-10-31T01:18:24;8.60;;;5.05;;
20203;SDS011;10261;49.010;12.034;2022-10-31T01:19:28;9.23;;;5.35;;
20203;SDS011;10261;49.010;12.034;2022-10-31T01:20:30;6.30;;;5.00;;
20203;SDS011;10261;49.010;12.034;2022-10-31T01:21:33;6.50;;;5.40;;
20203;SDS011;10261;49.010;12.034;2022-10-31T01:22:35;7.75;;;5.03;;
20203;SDS011;10261;49.010;12.034;2022-10-31T01:23:39;8.15;;;4.90;;
20203;SDS011;10261;49.010;12.034;2022-10-31T01:24:41;7.20;;;5.22;;
20203;SDS011;10261;49.010;12.034;2022-10-31T01:25:44;7.38;;;4.90;;
20203;SDS011;10261;49.010;12.034;2022-10-31T01:26:46;7.10;;;4.95;;
20203;SDS011;10261;49.010;12.034;2022-10-31T01:27:49;13.38;;;6.50;;
20203;SDS011;10261;49.010;12.034;2022-10-31T01:28:53;8.07;;;4.78;;
20203;SDS011;10261;49.010;12.034;2022-10-31T01:29:57;5.95;;;4.15;;
20203;SDS011;10261;49.010;12.034;2022-10-31T01:31:03;8.30;;;4.50;;
20203;SDS011;10261;49.010;12.034;2022-10-31T01:32:06;10.50;;;4.20;;
20203;SDS011;10261;49.010;12.034;2022-10-31T01:33:08;6.85;;;4.97;;
20203;SDS011;10261;49.010;12.034;2022-10-31T01:34:14;6.25;;;5.22;;
20203;SDS011;10261;49.010;12.034;2022-10-31T01:35:18;11.30;;;5.00;;
20203;SDS011;10261;49.010;12.034;2022-10-31T01:36:23;8.52;;;5.00;;
20203;SDS011;10261;49.010;12.034;2022-10-31T01:37:27;5.15;;;4.65;;
20203;SDS011;10261;49.010;12.034;2022-10-31T01:38:29;7.07;;;4.45;;
20203;SDS011;10261;49.010;12.034;2022-10-31T01:39:31;8.13;;;5.10;;
20203;SDS011;10261;49.010;12.034;2022-10-31T01:40:34;6.28;;;5.15;;
20203;SDS011;10261;49.010;12.034;2022-10-31T01:41:38;8.68;;;4.55;;
20203;SDS011;10261;49.010;12.034;2022-10-31T01:42:43;5.93;;;4.13;;
20203;SDS011;10261;49.010;12.034;2022-10-31T01:43:46;6.50;;;4.50;;
20203;SDS011;10261;49.010;12.034;2022-10-31T01:44:52;6.03;;;4.30;;
20203;SDS011;10261;49.010;12.034;2022-10-31T01:45:57;6.50;;;4.22;;
20203;SDS011;10261;49.010;12.034;2022-10-31T01:47:01;8.27;;;3.85;;
20203;SDS011;10261;49.010;12.034;2022-10-31T01:48:10;4.65;;;4.18;;
20203;SDS011;10261;49.010;12.034;2022-10-31T01:49:20;5.18;;;4.68;;
20203;SDS011;10261;49.010;12.034;2022-10-31T01:50:26;7.10;;;4.22;;
20203;SDS011;10261;49.010;12.034;2022-10-31T01:51:34;5.53;;;4.15;;
20203;SDS011;10261;49.010;12.034;2022-10-31T01:52:40;7.88;;;5.97;;
20203;SDS011;10261;49.010;12.034;2022-10-31T01:53:45;4.78;;;3.88;;
20203;SDS011;10261;49.010;12.034;2022-10-31T01:54:48;4.47;;;4.07;;
20203;SDS011;10261;49.010;12.034;2022-10-31T01:55:54;4.93;;;4.28;;
20203;SDS011;10261;49.010;12.034;2022-10-31T01:56:58;5.93;;;5.05;;
20203;SDS011;10261;49.010;12.034;2022-10-31T01:58:04;7.15;;;5.20;;
20203;SDS011;10261;49.010;12.034;2022-10-31T01:59:11;10.95;;;5.07;;
20203;SDS011;10261;49.010;12.034;2022-10-31T02:00:17;6.15;;;4.70;;
20203;SDS011;10261;49.010;12.034;2022-10-31T02:01:22;5.88;;;4.65;;
20203;SDS011;10261;49.010;12.034;2022-10-31T02:02:24;6.07;;;4.50;;
20203;SDS011;10261;49.010;12.034;2022-10-31T02:03:29;5.47;;;4.95;;
20203;SDS011;10261;49.010;12.034;2022-10-31T02:04:34;7.22;;;4.25;;
20203;SDS011;10261;49.010;12.034;2022-10-31T02:05:37;5.22;;;4.70;;
20203;SDS011;10261;49.010;12.034;2022-10-31T02:06:41;9.90;;;5.25;;
20203;SDS011;10261;49.010;12.034;2022-10-31T02:07:51;4.95;;;4.18;;
20203;SDS011;10261;49.010;12.034;2022-10-31T02:08:56;6.70;;;4.75;;
20203;SDS011;10261;49.010;12.034;2022-10-31T02:10:01;8.77;;;5.72;;
20203;SDS011;10261;49.010;12.034;2022-10-31T02:11:04;5.18;;;4.35;;
20203;SDS011;10261;49.010;12.034;2022-10-31T02:12:08;4.80;;;4.30;;
20203;SDS011;10261;49.010;12.034;2022-10-31T02:13:11;5.57;;;4.45;;
20203;SDS011;10261;49.010;12.034;2022-10-31T02:14:15;5.10;;;4.55;;
20203;SDS011;10261;49.010;12.034;2022-10-31T02:15:17;10.85;;;4.70;;
20203;SDS011;10261;49.010;12.034;2022-10-31T02:16:20;6.38;;;4.85;;
20203;SDS011;10261;49.010;12.034;2022-10-31T02:17:22;8.55;;;4.53;;
20203;SDS011;10261;49.010;12.034;2022-10-31T02:18:26;6.07;;;5.13;;
20203;SDS011;10261;49.010;12.034;2022-10-31T02:19:32;9.45;;;4.70;;
20203;SDS011;10261;49.010;12.034;2022-10-31T02:20:46;10.65;;;5.25;;
20203;SDS011;10261;49.010;12.034;2022-10-31T02:21:56;8.35;;;5.07;;
20203;SDS011;10261;49.010;12.034;2022-10-31T02:23:19;5.25;;;4.03;;
20203;SDS011;10261;49.010;12.034;2022-10-31T02:24:46;4.97;;;4.20;;
20203;SDS011;10261;49.010;12.034;2022-10-31T02:26:07;8.15;;;3.95;;
20203;SDS011;10261;49.010;12.034;2022-10-31T02:27:21;5.35;;;4.28;;
20203;SDS011;10261;49.010;12.034;2022-10-31T02:28:51;8.80;;;5.82;;
20203;SDS011;10261;49.010;12.034;2022-10-31T02:30:11;9.55;;;6.07;;
20203;SDS011;10261;49.010;12.034;2022-10-31T02:31:25;9.00;;;5.15;;
20203;SDS011;10261;49.010;12.034;2022-10-31T02:32:43;10.27;;;4.95;;
20203;SDS011;10261;49.010;12.034;2022-10-31T02:33:55;9.65;;;4.72;;
20203;SDS011;10261;49.010;12.034;2022-10-31T02:35:04;8.98;;;4.70;;
20203;SDS011;10261;49.010;12.034;2022-10-31T02:36:13;10.77;;;4.47;;
20203;SDS011;10261;49.010;12.034;2022-10-31T02:37:24;9.23;;;4.78;;
20203;SDS011;10261;49.010;12.034;2022-10-31T02:38:35;9.85;;;5.50;;
20203;SDS011;10261;49.010;12.034;2022-10-31T02:39:47;7.78;;;5.10;;
20203;SDS011;10261;49.010;12.034;2022-10-31T02:42:22;5.88;;;4.65;;
20203;SDS011;10261;49.010;12.034;2022-10-31T02:43:27;9.60;;;5.75;;
20203;SDS011;10261;49.010;12.034;2022-10-31T02:44:35;8.23;;;5.40;;
20203;SDS011;10261;49.010;12.034;2022-10-31T02:45:41;7.30;;;5.10;;
20203;SDS011;10261;49.010;12.034;2022-10-31T02:46:53;11.52;;;5.78;;
20203;SDS011;10261;49.010;12.034;2022-10-31T02:48:01;8.90;;;4.70;;
20203;SDS011;10261;49.010;12.034;2022-10-31T02:49:11;10.32;;;5.60;;
20203;SDS011;10261;49.010;12.034;2022-10-31T02:50:21;9.55;;;5.03;;
20203;SDS011;10261;49.010;12.034;2022-10-31T02:51:25;7.93;;;4.68;;
20203;SDS011;10261;49.010;12.034;2022-10-31T02:52:28;6.60;;;4.97;;
20203;SDS011;10261;49.010;12.034;2022-10-31T02:53:33;13.05;;;5.70;;
20203;SDS011;10261;49.010;12.034;2022-10-31T02:54:35;8.55;;;5.47;;
20203;SDS011;10261;49.010;12.034;2022-10-31T02:55:47;6.70;;;5.40;;
20203;SDS011;10261;49.010;12.034;2022-10-31T02:56:53;10.30;;;5.28;;
20203;SDS011;10261;49.010;12.034;2022-10-31T02:58:02;9.18;;;6.63;;
20203;SDS011;10261;49.010;12.034;2022-10-31T02:59:07;10.40;;;4.78;;
20203;SDS011;10261;49.010;12.034;2022-10-31T03:00:11;6.45;;;5.22;;
20203;SDS011;10261;49.010;12.034;2022-10-31T03:01:21;6.55;;;4.90;;
20203;SDS011;10261;49.010;12.034;2022-10-31T03:02:45;8.15;;;5.05;;
20203;SDS011;10261;49.010;12.034;2022-10-31T03:04:05;10.20;;;4.80;;
20203;SDS011;10261;49.010;12.034;2022-10-31T03:05:32;7.43;;;4.18;;
20203;SDS011;10261;49.010;12.034;2022-10-31T03:06:49;9.15;;;5.38;;
20203;SDS011;10261;49.010;12.034;2022-10-31T03:07:59;10.70;;;4.82;;
20203;SDS011;10261;49.010;12.034;2022-10-31T03:09:09;7.45;;;5.00;;
20203;SDS011;10261;49.010;12.034;2022-10-31T03:10:20;5.78;;;4.40;;
20203;SDS011;10261;49.010;12.034;2022-10-31T03:11:32;7.60;;;4.40;;
20203;SDS011;10261;49.010;12.034;2022-10-31T03:12:45;7.88;;;5.47;;
20203;SDS011;10261;49.010;12.034;2022-10-31T03:13:57;5.82;;;4.72;;
20203;SDS011;10261;49.010;12.034;2022-10-31T03:15:11;10.40;;;5.25;;
20203;SDS011;10261;49.010;12.034;2022-10-31T03:16:21;8.75;;;4.70;;
20203;SDS011;10261;49.010;12.034;2022-10-31T03:17:31;6.03;;;4.30;;
20203;SDS011;10261;49.010;12.034;2022-10-31T03:18:40;6.30;;;4.82;;
20203;SDS011;10261;49.010;12.034;2022-10-31T03:19:49;4.60;;;4.03;;
20203;SDS011;10261;49.010;12.034;2022-10-31T03:20:58;6.78;;;3.58;;
20203;SDS011;10261;49.010;12.034;2022-10-31T03:22:06;6.75;;;4.40;;
20203;SDS011;10261;49.010;12.034;2022-10-31T03:23:14;7.82;;;4.28;;
20203;SDS011;10261;49.010;12.034;2022-10-31T03:24:19;5.60;;;4.15;;
20203;SDS011;10261;49.010;12.034;2022-10-31T03:25:23;4.75;;;3.80;;
20203;SDS011;10261;49.010;12.034;2022-10-31T03:26:27;8.45;;;4.45;;
20203;SDS011;10261;49.010;12.034;2022-10-31T03:27:30;4.85;;;4.30;;
20203;SDS011;10261;49.010;12.034;2022-10-31T03:28:38;4.82;;;3.60;;
20203;SDS011;10261;49.010;12.034;2022-10-31T03:29:46;5.50;;;4.85;;
20203;SDS011;10261;49.010;12.034;2022-10-31T03:30:52;13.93;;;4.93;;
20203;SDS011;10261;49.010;12.034;2022-10-31T03:31:57;8.05;;;4.20;;
20203;SDS011;10261;49.010;12.034;2022-10-31T03:33:05;7.40;;;4.32;;
20203;SDS011;10261;49.010;12.034;2022-10-31T03:34:12;5.28;;;4.35;;
20203;SDS011;10261;49.010;12.034;2022-10-31T03:35:16;8.10;;;4.70;;
20203;SDS011;10261;49.010;12.034;2022-10-31T03:36:21;8.98;;;4.38;;
20203;SDS011;10261;49.010;12.034;2022-10-31T03:37:25;6.85;;;4.43;;
20203;SDS011;10261;49.010;12.034;2022-10-31T03:38:31;5.32;;;4.82;;
20203;SDS011;10261;49.010;12.034;2022-10-31T03:39:35;8.07;;;5.10;;
20203;SDS011;10261;49.010;12.034;2022-10-31T03:40:38;11.63;;;4.25;;
20203;SDS011;10261;49.010;12.034;2022-10-31T03:41:45;8.40;;;4.28;;
20203;SDS011;10261;49.010;12.034;2022-10-31T03:42:51;6.63;;;4.18;;
20203;SDS011;10261;49.010;12.034;2022-10-31T03:43:57;4.32;;;3.92;;
20203;SDS011;10261;49.010;12.034;2022-10-31T03:45:05;6.20;;;4.35;;
20203;SDS011;10261;49.010;12.034;2022-10-31T03:46:12;9.80;;;5.22;;
20203;SDS011;10261;49.010;12.034;2022-10-31T03:47:14;6.13;;;4.55;;
20203;SDS011;10261;49.010;12.034;2022-10-31T03:48:17;4.25;;;3.85;;
20203;SDS011;10261;49.010;12.034;2022-10-31T03:49:22;6.07;;;4.50;;
20203;SDS011;10261;49.010;12.034;2022-10-31T03:50:27;13.10;;;4.38;;
20203;SDS011;10261;49.010;12.034;2022-10-31T03:51:35;5.13;;;4.22;;
20203;SDS011;10261;49.010;12.034;2022-10-31T03:52:45;3.70;;;3.40;;
20203;SDS011;10261;49.010;12.034;2022-10-31T03:53:52;4.03;;;3.50;;
20203;SDS011;10261;49.010;12.034;2022-10-31T03:54:59;5.90;;;3.50;;
20203;SDS011;10261;49.010;12.034;2022-10-31T03:56:07;4.70;;;4.10;;
20203;SDS011;10261;49.010;12.034;2022-10-31T03:57:16;3.58;;;3.25;;
20203;SDS011;10261;49.010;12.034;2022-10-31T03:58:25;3.88;;;3.30;;
20203;SDS011;10261;49.010;12.034;2022-10-31T03:59:34;3.70;;;3.40;;
20203;SDS011;10261;49.010;12.034;2022-10-31T04:00:38;4.90;;;4.03;;
20203;SDS011;10261;49.010;12.034;2022-10-31T04:01:45;3.92;;;3.40;;
20203;SDS011;10261;49.010;12.034;2022-10-31T04:02:51;4.10;;;2.90;;
20203;SDS011;10261;49.010;12.034;2022-10-31T04:04:00;3.80;;;3.50;;
20203;SDS011;10261;49.010;12.034;2022-10-31T04:05:05;3.78;;;3.47;;
20203;SDS011;10261;49.010;12.034;2022-10-31T04:06:10;4.07;;;3.65;;
20203;SDS011;10261;49.010;12.034;2022-10-31T04:07:15;3.25;;;3.05;;
20203;SDS011;10261;49.010;12.034;2022-10-31T04:08:21;4.40;;;4.00;;
20203;SDS011;10261;49.010;12.034;2022-10-31T04:09:25;5.45;;;3.83;;
20203;SDS011;10261;49.010;12.034;2022-10-31T04:10:30;3.75;;;3.45;;
20203;SDS011;10261;49.010;12.034;2022-10-31T04:11:35;4.18;;;3.78;;
20203;SDS011;10261;49.010;12.034;2022-10-31T04:12:40;7.90;;;3.80;;
20203;SDS011;10261;49.010;12.034;2022-10-31T04:13:44;3.58;;;3.28;;
20203;SDS011;10261;49.010;12.034;2022-10-31T04:14:48;4.63;;;3.85;;
20203;SDS011;10261;49.010;12.034;2022-10-31T04:15:52;7.57;;;3.40;;
20203;SDS011;10261;49.010;12.034;2022-10-31T04:16:57;4.75;;;3.70;;
20203;SDS011;10261;49.010;12.034;2022-10-31T04:17:59;5.00;;;4.07;;
20203;SDS011;10261;49.010;12.034;2022-10-31T04:19:03;4.72;;;3.70;;
20203;SDS011;10261;49.010;12.034;2022-10-31T04:20:07;4.03;;;3.63;;
20203;SDS011;10261;49.010;12.034;2022-10-31T04:21:11;3.10;;;2.90;;
20203;SDS011;10261;49.010;12.034;2022-10-31T04:22:13;4.10;;;3.80;;
20203;SDS011;10261;49.010;12.034;2022-10-31T04:23:17;3.53;;;3.22;;
20203;SDS011;10261;49.010;12.034;2022-10-31T04:24:21;4.50;;;3.70;;
20203;SDS011;10261;49.010;12.034;2022-10-31T04:25:24;4.38;;;3.60;;
20203;SDS011;10261;49.010;12.034;2022-10-31T04:26:26;3.75;;;3.40;;
20203;SDS011;10261;49.010;12.034;2022-10-31T04:27:29;4.45;;;3.95;;
20203;SDS011;10261;49.010;12.034;2022-10-31T04:28:31;5.22;;;3.95;;
20203;SDS011;10261;49.010;12.034;2022-10-31T04:29:35;5.30;;;3.60;;
20203;SDS011;10261;49.010;12.034;2022-10-31T04:30:36;4.05;;;3.42;;
20203;SDS011;10261;49.010;12.034;2022-10-31T04:31:39;4.68;;;3.60;;
20203;SDS011;10261;49.010;12.034;2022-10-31T04:32:41;5.65;;;4.03;;
20203;SDS011;10261;49.010;12.034;2022-10-31T04:33:44;4.65;;;4.18;;
20203;SDS011;10261;49.010;12.034;2022-10-31T04:34:46;3.88;;;3.47;;
20203;SDS011;10261;49.010;12.034;2022-10-31T04:35:50;8.07;;;4.20;;
20203;SDS011;10261;49.010;12.034;2022-10-31T04:36:52;9.70;;;4.03;;
20203;SDS011;10261;49.010;12.034;2022-10-31T04:37:55;7.43;;;3.92;;
20203;SDS011;10261;49.010;12.034;2022-10-31T04:38:57;5.63;;;4.30;;
20203;SDS011;10261;49.010;12.034;2022-10-31T04:40:00;7.65;;;5.22;;
20203;SDS011;10261;49.010;12.034;2022-10-31T04:41:02;9.13;;;4.22;;
20203;SDS011;10261;49.010;12.034;2022-10-31T04:42:05;11.85;;;4.45;;
20203;SDS011;10261;49.010;12.034;2022-10-31T04:43:07;6.57;;;4.60;;
20203;SDS011;10261;49.010;12.034;2022-10-31T04:44:10;5.88;;;4.57;;
20203;SDS011;10261;49.010;12.034;2022-10-31T04:45:12;7.38;;;4.93;;
20203;SDS011;10261;49.010;12.034;2022-10-31T04:46:21;8.57;;;4.97;;
20203;SDS011;10261;49.010;12.034;2022-10-31T04:47:23;7.88;;;4.55;;
20203;SDS011;10261;49.010;12.034;2022-10-31T04:48:26;6.93;;;4.32;;
20203;SDS011;10261;49.010;12.034;2022-10-31T04:49:28;5.20;;;4.20;;
20203;SDS011;10261;49.010;12.034;2022-10-31T04:50:31;8.18;;;4.97;;
20203;SDS011;10261;49.010;12.034;2022-10-31T04:51:34;8.95;;;4.25;;
20203;SDS011;10261;49.010;12.034;2022-10-31T04:52:38;6.50;;;4.38;;
20203;SDS011;10261;49.010;12.034;2022-10-31T04:53:41;10.10;;;4.40;;
20203;SDS011;10261;49.010;12.034;2022-10-31T04:54:43;5.10;;;4.35;;
20203;SDS011;10261;49.010;12.034;2022-10-31T04:55:45;7.30;;;4.05;;
20203;SDS011;10261;49.010;12.034;2022-10-31T04:56:48;4.90;;;4.22;;
20203;SDS011;10261;49.010;12.034;2022-10-31T04:57:50;4.90;;;3.47;;
20203;SDS011;10261;49.010;12.034;2022-10-31T04:58:53;8.90;;;4.97;;
20203;SDS011;10261;49.010;12.034;2022-10-31T04:59:55;6.30;;;3.92;;
20203;SDS011;10261;49.010;12.034;2022-10-31T05:00:58;5.93;;;3.85;;
20203;SDS011;10261;49.010;12.034;2022-10-31T05:02:00;6.38;;;3.97;;
20203;SDS011;10261;49.010;12.034;2022-10-31T05:03:03;6.60;;;4.53;;
20203;SDS011;10261;49.010;12.034;2022-10-31T05:04:05;4.93;;;3.80;;
20203;SDS011;10261;49.010;12.034;2022-10-31T05:05:08;6.45;;;4.80;;
20203;SDS011;10261;49.010;12.034;2022-10-31T05:06:10;4.97;;;4.20;;
20203;SDS011;10261;49.010;12.034;2022-10-31T05:07:14;8.30;;;4.32;;
20203;SDS011;10261;49.010;12.034;2022-10-31T05:08:16;14.85;;;5.00;;
20203;SDS011;10261;49.010;12.034;2022-10-31T05:09:19;6.35;;;4.75;;
20203;SDS011;10261;49.010;12.034;2022-10-31T05:10:22;4.50;;;3.72;;
20203;SDS011;10261;49.010;12.034;2022-10-31T05:11:26;5.93;;;4.57;;
20203;SDS011;10261;49.010;12.034;2022-10-31T05:12:29;5.90;;;4.78;;
20203;SDS011;10261;49.010;12.034;2022-10-31T05:13:31;6.75;;;4.20;;
20203;SDS011;10261;49.010;12.034;2022-10-31T05:14:34;7.10;;;4.10;;
20203;SDS011;10261;49.010;12.034;2022-10-31T05:15:36;7.82;;;4.47;;
20203;SDS011;10261;49.010;12.034;2022-10-31T05:16:39;13.13;;;5.05;;
20203;SDS011;10261;49.010;12.034;2022-10-31T05:17:41;6.97;;;4.95;;
20203;SDS011;10261;49.010;12.034;2022-10-31T05:18:44;7.22;;;3.85;;
20203;SDS011;10261;49.010;12.034;2022-10-31T05:19:47;5.60;;;4.28;;
20203;SDS011;10261;49.010;12.034;2022-10-31T05:20:49;9.93;;;4.80;;
20203;SDS011;10261;49.010;12.034;2022-10-31T05:21:52;7.80;;;4.57;;
20203;SDS011;10261;49.010;12.034;2022-10-31T05:22:56;7.15;;;4.45;;
20203;SDS011;10261;49.010;12.034;2022-10-31T05:24:00;7.82;;;4.93;;
20203;SDS011;10261;49.010;12.034;2022-10-31T05:25:03;5.75;;;4.13;;
20203;SDS011;10261;49.010;12.034;2022-10-31T05:26:06;7.20;;;4.55;;
20203;SDS011;10261;49.010;12.034;2022-10-31T05:27:08;4.78;;;4.28;;
20203;SDS011;10261;49.010;12.034;2022-10-31T05:28:11;5.43;;;4.68;;
20203;SDS011;10261;49.010;12.034;2022-10-31T05:29:13;8.75;;;4.85;;
20203;SDS011;10261;49.010;12.034;2022-10-31T05:30:16;7.90;;;4.43;;
20203;SDS011;10261;49.010;12.034;2022-10-31T05:31:20;7.50;;;4.75;;
20203;SDS011;10261;49.010;12.034;2022-10-31T05:32:23;7.30;;;4.50;;
20203;SDS011;10261;49.010;12.034;2022-10-31T05:33:25;7.05;;;4.50;;
20203;SDS011;10261;49.010;12.034;2022-10-31T05:34:27;7.43;;;4.63;;
20203;SDS011;10261;49.010;12.034;2022-10-31T05:35:30;5.28;;;4.40;;
20203;SDS011;10261;49.010;12.034;2022-10-31T05:36:34;5.60;;;4.65;;
20203;SDS011;10261;49.010;12.034;2022-10-31T05:37:36;10.27;;;4.70;;
20203;SDS011;10261;49.010;12.034;2022-10-31T05:38:40;10.60;;;4.80;;
20203;SDS011;10261;49.010;12.034;2022-10-31T05:39:42;8.75;;;4.78;;
20203;SDS011;10261;49.010;12.034;2022-10-31T05:40:45;8.40;;;4.82;;
20203;SDS011;10261;49.010;12.034;2022-10-31T05:41:47;7.57;;;4.80;;
20203;SDS011;10261;49.010;12.034;2022-10-31T05:42:50;7.20;;;4.20;;
20203;SDS011;10261;49.010;12.034;2022-10-31T05:43:53;7.20;;;4.95;;
20203;SDS011;10261;49.010;12.034;2022-10-31T05:44:56;7.78;;;4.78;;
20203;SDS011;10261;49.010;12.034;2022-10-31T05:45:58;6.00;;;4.70;;
20203;SDS011;10261;49.010;12.034;2022-10-31T05:47:01;9.82;;;4.82;;
20203;SDS011;10261;49.010;12.034;2022-10-31T05:48:03;5.90;;;4.35;;
20203;SDS011;10261;49.010;12.034;2022-10-31T05:49:06;10.18;;;4.35;;
20203;SDS011;10261;49.010;12.034;2022-10-31T05:50:09;7.60;;;4.75;;
20203;SDS011;10261;49.010;12.034;2022-10-31T05:51:12;7.22;;;4.78;;
20203;SDS011;10261;49.010;12.034;2022-10-31T05:52:14;6.55;;;4.97;;
20203;SDS011;10261;49.010;12.034;2022-10-31T05:53:17;6.30;;;4.80;;
20203;SDS011;10261;49.010;12.034;2022-10-31T05:54:20;7.10;;;4.32;;
20203;SDS011;10261;49.010;12.034;2022-10-31T05:55:23;4.95;;;4.30;;
20203;SDS011;10261;49.010;12.034;2022-10-31T05:56:26;8.10;;;4.53;;
20203;SDS011;10261;49.010;12.034;2022-10-31T05:57:31;5.00;;;4.13;;
20203;SDS011;10261;49.010;12.034;2022-10-31T05:58:34;6.18;;;5.15;;
20203;SDS011;10261;49.010;12.034;2022-10-31T05:59:37;6.80;;;4.75;;
20203;SDS011;10261;49.010;12.034;2022-10-31T06:00:39;5.57;;;5.00;;
20203;SDS011;10261;49.010;12.034;2022-10-31T06:01:41;4.82;;;3.65;;
20203;SDS011;10261;49.010;12.034;2022-10-31T06:02:44;5.72;;;4.40;;
20203;SDS011;10261;49.010;12.034;2022-10-31T06:03:47;4.07;;;3.40;;
20203;SDS011;10261;49.010;12.034;2022-10-31T06:04:49;4.13;;;3.70;;
20203;SDS011;10261;49.010;12.034;2022-10-31T06:05:52;5.47;;;3.95;;
20203;SDS011;10261;49.010;12.034;2022-10-31T06:06:56;4.47;;;4.00;;
20203;SDS011;10261;49.010;12.034;2022-10-31T06:07:59;5.22;;;4.72;;
20203;SDS011;10261;49.010;12.034;2022-10-31T06:09:01;5.93;;;4.95;;
20203;SDS011;10261;49.010;12.034;2022-10-31T06:10:07;6.30;;;4.45;;
20203;SDS011;10261;49.010;12.034;2022-10-31T06:11:09;5.60;;;4.40;;
20203;SDS011;10261;49.010;12.034;2022-10-31T06:12:12;5.40;;;4.72;;
20203;SDS011;10261;49.010;12.034;2022-10-31T06:13:15;5.00;;;4.20;;
20203;SDS011;10261;49.010;12.034;2022-10-31T06:14:18;5.57;;;4.32;;
20203;SDS011;10261;49.010;12.034;2022-10-31T06:15:20;4.97;;;4.50;;
20203;SDS011;10261;49.010;12.034;2022-10-31T06:16:24;4.78;;;4.00;;
20203;SDS011;10261;49.010;12.034;2022-10-31T06:17:26;4.18;;;3.47;;
20203;SDS011;10261;49.010;12.034;2022-10-31T06:18:29;6.63;;;4.22;;
20203;SDS011;10261;49.010;12.034;2022-10-31T06:19:31;4.93;;;4.43;;
20203;SDS011;10261;49.010;12.034;2022-10-31T06:20:34;5.82;;;4.53;;
20203;SDS011;10261;49.010;12.034;2022-10-31T06:21:38;4.30;;;3.83;;
20203;SDS011;10261;49.010;12.034;2022-10-31T06:22:39;6.45;;;4.97;;
20203;SDS011;10261;49.010;12.034;2022-10-31T06:23:42;5.93;;;4.68;;
20203;SDS011;10261;49.010;12.034;2022-10-31T06:24:44;4.75;;;3.90;;
20203;SDS011;10261;49.010;12.034;2022-10-31T06:25:49;8.45;;;4.20;;